Time;durP1;ratioP1;P1;durP2;ratioP2;P2;SDS_P1;SDS_P2;PMS_P1;PMS_P2;Temp;Humidity;BMP_temperature;BMP_pressure;BME280_temperature;BME280_humidity;BME280_pressure;Samples;Min_cycle;Max_cycle;Signal;HPM_P1;HPM_P2
2022/05/30 00:00:07;;;;;;;2.28;0.55;;;;;;;;;;4971048;28;20560;-79
2022/05/30 00:02:34;;;;;;;2.80;0.60;;;;;;;;;;4986052;28;20034;-79
2022/05/30 00:05:00;;;;;;;2.28;0.80;;;;;;;;;;4987023;28;20128;-79
2022/05/30 00:07:27;;;;;;;1.60;0.60;;;;;;;;;;4986398;28;20173;-79
2022/05/30 00:09:54;;;;;;;2.28;0.60;;;;;;;;;;5003189;28;20055;-79
2022/05/30 00:12:20;;;;;;;1.23;0.50;;;;;;;;;;5002298;28;20118;-79
2022/05/30 00:14:46;;;;;;;1.40;0.73;;;;;;;;;;4985234;28;20065;-79
2022/05/30 00:17:12;;;;;;;2.95;0.70;;;;;;;;;;4986430;28;20035;-79
2022/05/30 00:19:39;;;;;;;3.63;0.80;;;;;;;;;;4986201;28;20035;-79
2022/05/30 00:22:06;;;;;;;4.53;0.80;;;;;;;;;;4986182;28;20043;-79
2022/05/30 00:24:32;;;;;;;3.38;0.80;;;;;;;;;;5002853;28;20073;-79
2022/05/30 00:26:58;;;;;;;2.80;0.80;;;;;;;;;;5000122;28;20097;-79
2022/05/30 00:29:25;;;;;;;1.90;0.65;;;;;;;;;;4970426;28;20427;-78
2022/05/30 00:31:51;;;;;;;2.75;0.90;;;;;;;;;;4969949;28;20046;-79
2022/05/30 00:34:20;;;;;;;4.38;1.10;;;;;;;;;;4995604;28;20725;-79
2022/05/30 00:36:46;;;;;;;7.00;1.17;;;;;;;;;;4991056;28;20058;-79
2022/05/30 00:39:12;;;;;;;3.85;1.10;;;;;;;;;;5002518;28;20043;-79
2022/05/30 00:41:38;;;;;;;3.20;0.95;;;;;;;;;;5002173;28;20042;-79
2022/05/30 00:44:05;;;;;;;2.80;1.42;;;;;;;;;;5002702;28;20053;-79
2022/05/30 00:46:31;;;;;;;4.20;1.20;;;;;;;;;;5001469;28;20133;-79
2022/05/30 00:49:00;;;;;;;5.10;1.40;;;;;;;;;;5002299;28;20112;-78
2022/05/30 00:51:31;;;;;;;3.72;1.40;;;;;;;;;;4986327;28;20391;-78
2022/05/30 00:53:58;;;;;;;4.93;1.50;;;;;;;;;;5001935;28;20042;-78
2022/05/30 00:56:25;;;;;;;4.85;1.40;;;;;;;;;;5002209;28;20118;-78
2022/05/30 00:58:52;;;;;;;8.35;1.67;;;;;;;;;;4986428;28;20042;-78
2022/05/30 01:01:19;;;;;;;6.82;1.73;;;;;;;;;;5002505;28;20521;-78
2022/05/30 01:06:40;;;;;;;7.82;1.80;;;;;;;;;;5002289;28;20047;-78
2022/05/30 01:09:10;;;;;;;5.47;1.90;;;;;;;;;;5002221;28;20135;-78
2022/05/30 01:11:47;;;;;;;5.82;1.88;;;;;;;;;;5002432;28;20483;-79
2022/05/30 01:14:13;;;;;;;5.97;2.40;;;;;;;;;;5001643;28;20490;-78
2022/05/30 01:16:39;;;;;;;7.88;2.10;;;;;;;;;;4969340;28;20046;-77
2022/05/30 01:19:08;;;;;;;8.25;2.20;;;;;;;;;;5001882;28;20209;-79
2022/05/30 01:21:53;;;;;;;5.15;1.88;;;;;;;;;;5001796;28;20039;-78
2022/05/30 01:24:29;;;;;;;6.78;2.10;;;;;;;;;;5001705;28;20573;-79
2022/05/30 01:26:55;;;;;;;;;;;;;;;;;;4986416;28;20035;-79
2022/05/30 01:29:28;;;;;;;8.35;1.98;;;;;;;;;;4969161;28;19925;-78
2022/05/30 01:31:55;;;;;;;9.07;2.28;;;;;;;;;;5002373;28;20055;-78
2022/05/30 01:34:22;;;;;;;6.20;2.30;;;;;;;;;;5001063;28;20073;-79
2022/05/30 01:36:48;;;;;;;9.05;2.30;;;;;;;;;;5002180;28;20418;-78
2022/05/30 01:39:15;;;;;;;6.40;2.35;;;;;;;;;;4969123;28;20042;-78
2022/05/30 01:41:41;;;;;;;7.28;2.17;;;;;;;;;;4968746;28;20098;-77
2022/05/30 01:44:07;;;;;;;6.28;2.25;;;;;;;;;;5001600;28;20046;-78
2022/05/30 01:46:33;;;;;;;5.55;2.40;;;;;;;;;;5001614;28;20601;-78
2022/05/30 01:48:59;;;;;;;5.88;2.60;;;;;;;;;;5001932;28;20053;-78
2022/05/30 01:51:25;;;;;;;8.40;2.88;;;;;;;;;;5001438;28;20047;-78
2022/05/30 01:53:52;;;;;;;5.78;2.35;;;;;;;;;;5001495;28;20500;-78
2022/05/30 01:56:18;;;;;;;5.38;2.50;;;;;;;;;;4970069;28;20439;-78
2022/05/30 01:58:45;;;;;;;6.47;2.75;;;;;;;;;;4959302;28;20050;-78
2022/05/30 02:01:21;;;;;;;9.02;2.25;;;;;;;;;;5008264;28;20043;-78
2022/05/30 02:03:49;;;;;;;7.05;2.28;;;;;;;;;;5003858;28;20039;-78
2022/05/30 02:06:15;;;;;;;6.35;2.40;;;;;;;;;;4988928;28;20158;-78
2022/05/30 02:08:42;;;;;;;7.18;2.25;;;;;;;;;;4959536;28;20403;-78
2022/05/30 02:11:10;;;;;;;5.88;2.10;;;;;;;;;;4989602;28;20122;-78
2022/05/30 02:13:37;;;;;;;6.97;2.20;;;;;;;;;;4973774;28;20575;-78
2022/05/30 02:18:52;;;;;;;5.47;2.22;;;;;;;;;;4974779;28;20047;-78
2022/05/30 02:21:19;;;;;;;6.13;2.78;;;;;;;;;;4973456;28;20045;-78
2022/05/30 02:23:45;;;;;;;5.97;2.17;;;;;;;;;;4998280;28;20053;-78
2022/05/30 02:26:11;;;;;;;6.65;1.98;;;;;;;;;;4991250;28;20038;-77
2022/05/30 02:28:37;;;;;;;6.95;2.45;;;;;;;;;;5007551;28;20047;-78
2022/05/30 02:31:04;;;;;;;5.90;2.10;;;;;;;;;;4991598;28;20070;-78
2022/05/30 02:39:00;;;;;;;5.68;2.28;;;;;;;;;;5008080;28;20049;-78
2022/05/30 02:41:26;;;;;;;5.53;1.90;;;;;;;;;;5007268;28;20051;-78
2022/05/30 02:43:52;;;;;;;3.25;1.75;;;;;;;;;;4975519;28;20101;-78
2022/05/30 02:46:18;;;;;;;4.60;1.90;;;;;;;;;;5007659;28;20365;-77
2022/05/30 02:48:45;;;;;;;5.70;2.05;;;;;;;;;;4975218;28;20459;-78
2022/05/30 02:51:11;;;;;;;6.10;1.92;;;;;;;;;;5007734;28;20475;-78
2022/05/30 02:53:37;;;;;;;5.78;2.20;;;;;;;;;;4974720;28;20133;-78
2022/05/30 02:56:04;;;;;;;5.43;1.90;;;;;;;;;;5007678;28;20065;-78
2022/05/30 02:58:30;;;;;;;5.32;2.10;;;;;;;;;;4958421;28;20046;-78
2022/05/30 03:00:56;;;;;;;5.93;2.40;;;;;;;;;;5007666;28;20054;-78
2022/05/30 03:03:22;;;;;;;7.05;2.33;;;;;;;;;;4974888;28;20430;-78
2022/05/30 03:05:48;;;;;;;4.10;2.03;;;;;;;;;;4974803;28;20377;-78
2022/05/30 03:08:14;;;;;;;5.35;1.92;;;;;;;;;;5005927;28;20051;-78
2022/05/30 03:10:40;;;;;;;4.35;2.00;;;;;;;;;;5003436;28;20042;-78
2022/05/30 03:13:07;;;;;;;5.53;2.50;;;;;;;;;;5004600;28;20122;-78
2022/05/30 03:15:33;;;;;;;6.80;2.25;;;;;;;;;;5003814;28;20051;-77
2022/05/30 03:18:01;;;;;;;5.43;2.00;;;;;;;;;;5004916;28;20081;-78
2022/05/30 03:20:27;;;;;;;4.90;2.28;;;;;;;;;;5004773;28;20074;-82
2022/05/30 03:22:54;;;;;;;7.30;2.40;;;;;;;;;;5005190;28;20130;-82
2022/05/30 03:25:20;;;;;;;7.72;2.50;;;;;;;;;;4981077;28;20047;-82
2022/05/30 03:27:46;;;;;;;11.10;2.65;;;;;;;;;;4999521;28;20047;-83
2022/05/30 03:30:13;;;;;;;7.30;2.50;;;;;;;;;;5005229;28;20038;-83
2022/05/30 03:32:41;;;;;;;4.95;2.50;;;;;;;;;;5004502;28;20042;-83
2022/05/30 03:35:07;;;;;;;5.82;2.72;;;;;;;;;;4992199;28;20038;-82
2022/05/30 03:37:35;;;;;;;7.78;2.60;;;;;;;;;;4980759;28;20051;-82
2022/05/30 03:40:02;;;;;;;6.97;2.40;;;;;;;;;;5004531;28;20145;-82
2022/05/30 03:42:28;;;;;;;7.05;2.58;;;;;;;;;;4971928;28;20501;-82
2022/05/30 03:44:54;;;;;;;8.05;2.33;;;;;;;;;;5004408;28;20525;-82
2022/05/30 03:47:20;;;;;;;7.18;2.45;;;;;;;;;;4971820;28;20359;-82
2022/05/30 03:49:46;;;;;;;9.13;2.58;;;;;;;;;;4972143;28;20562;-82
2022/05/30 03:52:14;;;;;;;7.88;2.85;;;;;;;;;;4971632;28;20034;-83
2022/05/30 03:54:40;;;;;;;5.93;2.67;;;;;;;;;;4987682;28;20521;-84
2022/05/30 03:57:06;;;;;;;6.78;3.40;;;;;;;;;;5004151;28;20049;-85
2022/05/30 03:59:32;;;;;;;7.05;2.40;;;;;;;;;;5013215;28;20101;-85
2022/05/30 04:01:58;;;;;;;6.43;2.80;;;;;;;;;;4976239;28;20487;-84
2022/05/30 04:04:24;;;;;;;8.05;2.70;;;;;;;;;;5003827;28;20042;-84
2022/05/30 04:06:50;;;;;;;8.63;3.10;;;;;;;;;;5004385;28;20142;-84
2022/05/30 04:09:16;;;;;;;6.47;2.70;;;;;;;;;;5003787;28;20089;-84
2022/05/30 04:11:43;;;;;;;8.10;3.08;;;;;;;;;;5003517;28;20561;-83
2022/05/30 04:14:09;;;;;;;7.43;3.30;;;;;;;;;;5000630;28;20112;-83
2022/05/30 04:16:35;;;;;;;11.85;2.70;;;;;;;;;;5003209;28;20109;-83
2022/05/30 04:19:02;;;;;;;7.57;2.80;;;;;;;;;;4971375;28;20046;-83
2022/05/30 04:21:28;;;;;;;10.10;3.60;;;;;;;;;;4986962;28;20048;-84
2022/05/30 04:23:55;;;;;;;7.35;2.78;;;;;;;;;;5004833;28;20050;-84
2022/05/30 04:26:21;;;;;;;6.18;2.70;;;;;;;;;;5001612;28;20101;-84
2022/05/30 04:28:47;;;;;;;5.97;2.60;;;;;;;;;;4988762;28;20038;-85
2022/05/30 04:31:14;;;;;;;4.72;2.08;;;;;;;;;;4988280;28;20372;-86
2022/05/30 04:33:40;;;;;;;6.38;2.70;;;;;;;;;;5003391;28;20034;-85
2022/05/30 04:36:08;;;;;;;4.28;2.30;;;;;;;;;;4970895;28;20042;-84
2022/05/30 04:38:34;;;;;;;7.47;2.80;;;;;;;;;;5002655;28;20031;-84
2022/05/30 04:41:00;;;;;;;6.25;2.60;;;;;;;;;;5004449;28;20043;-84
2022/05/30 04:43:26;;;;;;;7.60;2.50;;;;;;;;;;4971559;28;20055;-84
2022/05/30 04:46:04;;;;;;;6.03;2.65;;;;;;;;;;5004710;28;20043;-85
2022/05/30 04:48:30;;;;;;;5.90;2.22;;;;;;;;;;5006751;28;20552;-84
2022/05/30 04:50:57;;;;;;;5.03;2.17;;;;;;;;;;4990577;28;20045;-84
2022/05/30 04:53:23;;;;;;;6.90;2.70;;;;;;;;;;4975932;28;20263;-83
2022/05/30 04:55:49;;;;;;;6.45;2.50;;;;;;;;;;4972389;28;20039;-84
2022/05/30 04:58:15;;;;;;;5.75;2.70;;;;;;;;;;4956583;28;20431;-83
2022/05/30 05:00:41;;;;;;;5.82;2.40;;;;;;;;;;5004595;28;20073;-83
2022/05/30 05:03:07;;;;;;;5.97;2.40;;;;;;;;;;5005186;28;20057;-83
2022/05/30 05:05:33;;;;;;;5.35;2.58;;;;;;;;;;5004367;28;20081;-84
2022/05/30 05:08:06;;;;;;;7.10;2.40;;;;;;;;;;5004796;28;20573;-83
2022/05/30 05:10:47;;;;;;;5.50;2.33;;;;;;;;;;4969676;28;20109;-84
2022/05/30 05:13:13;;;;;;;6.63;2.20;;;;;;;;;;4994967;28;20047;-84
2022/05/30 05:15:39;;;;;;;6.15;2.20;;;;;;;;;;5002479;28;20050;-77
2022/05/30 05:18:06;;;;;;;6.00;2.13;;;;;;;;;;5002426;28;20726;-77
2022/05/30 05:20:39;;;;;;;7.40;1.92;;;;;;;;;;5001458;28;20065;-78
2022/05/30 05:23:05;;;;;;;8.02;2.08;;;;;;;;;;4985666;28;20097;-77
2022/05/30 05:25:31;;;;;;;5.40;2.00;;;;;;;;;;4984772;28;20398;-77
2022/05/30 05:27:57;;;;;;;4.18;1.60;;;;;;;;;;5001948;28;20042;-77
2022/05/30 05:30:23;;;;;;;4.00;1.48;;;;;;;;;;5001568;28;20070;-77
2022/05/30 05:32:49;;;;;;;4.55;1.70;;;;;;;;;;5001299;28;20058;-84
2022/05/30 05:35:15;;;;;;;4.43;1.88;;;;;;;;;;5009768;28;20042;-84
2022/05/30 05:37:41;;;;;;;4.60;1.80;;;;;;;;;;4977519;28;20519;-77
2022/05/30 05:40:08;;;;;;;3.42;1.67;;;;;;;;;;5001651;28;20093;-78
2022/05/30 05:42:34;;;;;;;4.38;1.60;;;;;;;;;;5001511;28;20059;-77
2022/05/30 05:45:00;;;;;;;6.03;1.50;;;;;;;;;;5001378;28;20399;-77
2022/05/30 05:47:26;;;;;;;5.22;1.63;;;;;;;;;;5001088;28;20100;-77
2022/05/30 05:49:52;;;;;;;4.65;1.45;;;;;;;;;;5001400;28;20042;-77
2022/05/30 05:52:20;;;;;;;5.95;1.80;;;;;;;;;;4969097;28;20039;-77
2022/05/30 05:54:46;;;;;;;5.28;1.63;;;;;;;;;;4984424;28;20443;-77
2022/05/30 05:57:12;;;;;;;5.75;1.70;;;;;;;;;;5001271;28;20034;-77
2022/05/30 05:59:38;;;;;;;5.05;1.60;;;;;;;;;;5001291;28;20371;-77
2022/05/30 06:02:05;;;;;;;2.95;1.40;;;;;;;;;;4987686;28;20126;-77
2022/05/30 06:04:32;;;;;;;4.88;1.50;;;;;;;;;;4969003;28;20053;-77
2022/05/30 06:07:02;;;;;;;6.47;1.70;;;;;;;;;;5001322;28;20057;-77
2022/05/30 06:09:28;;;;;;;5.25;1.42;;;;;;;;;;4969006;28;20043;-77
2022/05/30 06:11:54;;;;;;;6.90;1.67;;;;;;;;;;5004391;28;20502;-87
2022/05/30 06:14:22;;;;;;;5.38;1.58;;;;;;;;;;5004892;28;20138;-88
2022/05/30 06:16:48;;;;;;;4.60;1.58;;;;;;;;;;5003436;28;20514;-77
2022/05/30 06:19:14;;;;;;;2.95;1.13;;;;;;;;;;4968957;28;20395;-77
2022/05/30 06:21:40;;;;;;;3.30;1.00;;;;;;;;;;5000610;28;20030;-77
2022/05/30 06:24:08;;;;;;;4.18;1.10;;;;;;;;;;5001766;28;20082;-76
2022/05/30 06:26:35;;;;;;;4.15;1.05;;;;;;;;;;4984083;28;20051;-77
2022/05/30 06:29:01;;;;;;;3.97;0.93;;;;;;;;;;4969013;28;20458;-77
2022/05/30 06:31:28;;;;;;;2.40;0.90;;;;;;;;;;4968281;28;20503;-77
2022/05/30 06:33:54;;;;;;;3.40;0.80;;;;;;;;;;5000864;28;20051;-77
2022/05/30 06:36:22;;;;;;;3.58;0.90;;;;;;;;;;5001297;28;20043;-77
2022/05/30 06:38:49;;;;;;;3.35;0.95;;;;;;;;;;5000785;28;20151;-77
2022/05/30 06:41:15;;;;;;;3.17;0.90;;;;;;;;;;4968744;28;20184;-76
2022/05/30 06:43:41;;;;;;;3.33;0.90;;;;;;;;;;5000783;28;20078;-77
2022/05/30 06:46:08;;;;;;;5.05;1.00;;;;;;;;;;5005179;28;20577;-77
2022/05/30 06:48:34;;;;;;;4.07;1.00;;;;;;;;;;4973179;28;20035;-77
2022/05/30 06:51:07;;;;;;;3.65;1.00;;;;;;;;;;5008764;28;20482;-89
2022/05/30 06:53:33;;;;;;;4.05;0.90;;;;;;;;;;4980368;28;20074;-89
2022/05/30 06:56:00;;;;;;;3.40;1.00;;;;;;;;;;4988323;28;20129;-89
2022/05/30 06:58:26;;;;;;;3.08;0.90;;;;;;;;;;4960032;28;20046;-89
2022/05/30 07:00:52;;;;;;;3.75;0.90;;;;;;;;;;5014739;28;20038;-89
2022/05/30 07:03:19;;;;;;;4.88;1.27;;;;;;;;;;4984062;28;20051;-89
2022/05/30 07:05:45;;;;;;;3.15;0.93;;;;;;;;;;5012732;28;20038;-89
2022/05/30 07:08:12;;;;;;;3.67;0.80;;;;;;;;;;4985725;28;20106;-77
2022/05/30 07:10:39;;;;;;;2.40;0.70;;;;;;;;;;5004460;28;20406;-77
2022/05/30 07:13:05;;;;;;;3.08;0.75;;;;;;;;;;5005493;28;20047;-89
2022/05/30 07:15:34;;;;;;;2.13;0.63;;;;;;;;;;4975173;28;20065;-89
2022/05/30 07:18:00;;;;;;;1.60;0.60;;;;;;;;;;4999634;28;20073;-89
2022/05/30 07:20:26;;;;;;;2.30;0.60;;;;;;;;;;4969444;28;20043;-88
2022/05/30 07:22:52;;;;;;;2.10;0.55;;;;;;;;;;5004155;28;20506;-88
2022/05/30 07:25:19;;;;;;;2.10;0.70;;;;;;;;;;5000556;28;20043;-91
2022/05/30 07:27:45;;;;;;;1.73;0.50;;;;;;;;;;5005870;28;20556;-90
2022/05/30 07:30:11;;;;;;;1.95;0.47;;;;;;;;;;4996633;28;20042;-89
2022/05/30 07:32:37;;;;;;;2.95;0.50;;;;;;;;;;4996187;28;20046;-90
2022/05/30 07:35:03;;;;;;;2.88;0.63;;;;;;;;;;4997197;28;20126;-91
2022/05/30 07:37:30;;;;;;;1.30;0.45;;;;;;;;;;4997030;28;20039;-90
2022/05/30 07:39:56;;;;;;;3.10;0.65;;;;;;;;;;4980184;28;20049;-92
2022/05/30 07:42:22;;;;;;;2.47;0.60;;;;;;;;;;5016976;28;20386;-90
2022/05/30 07:44:48;;;;;;;2.05;0.55;;;;;;;;;;4982012;28;20050;-89
2022/05/30 07:47:17;;;;;;;3.00;0.80;;;;;;;;;;4990402;28;20042;-90
2022/05/30 07:49:43;;;;;;;3.25;0.73;;;;;;;;;;5009787;28;20051;-88
2022/05/30 07:52:09;;;;;;;2.10;0.52;;;;;;;;;;4993292;28;20098;-89
2022/05/30 07:54:35;;;;;;;3.47;0.60;;;;;;;;;;4976692;28;20075;-88
2022/05/30 07:57:05;;;;;;;1.52;0.50;;;;;;;;;;4977043;28;20042;-87
2022/05/30 07:59:31;;;;;;;2.13;0.50;;;;;;;;;;4994082;28;20051;-89
2022/05/30 08:01:58;;;;;;;1.80;0.68;;;;;;;;;;5008778;28;20482;-84
2022/05/30 08:04:24;;;;;;;2.20;0.55;;;;;;;;;;4993338;28;20455;-89
2022/05/30 08:06:51;;;;;;;3.40;0.80;;;;;;;;;;5023389;28;20044;-87
2022/05/30 08:09:20;;;;;;;2.33;0.60;;;;;;;;;;4968974;28;20042;-87
2022/05/30 08:11:46;;;;;;;1.98;0.50;;;;;;;;;;4985994;28;20521;-87
2022/05/30 08:14:12;;;;;;;2.85;0.70;;;;;;;;;;4987252;28;20043;-86
2022/05/30 08:16:38;;;;;;;2.33;0.60;;;;;;;;;;5011427;28;20173;-87
2022/05/30 08:19:05;;;;;;;1.60;0.52;;;;;;;;;;4984502;28;20038;-89
2022/05/30 08:21:31;;;;;;;1.98;0.57;;;;;;;;;;4979467;28;20074;-87
2022/05/30 08:23:57;;;;;;;2.13;0.55;;;;;;;;;;4986631;28;20046;-84
2022/05/30 08:26:23;;;;;;;1.20;0.47;;;;;;;;;;4975751;28;20062;-89
2022/05/30 08:28:49;;;;;;;2.17;0.52;;;;;;;;;;4996135;28;20108;-89
2022/05/30 08:31:16;;;;;;;1.58;0.60;;;;;;;;;;5007638;28;20490;-89
2022/05/30 08:33:43;;;;;;;2.28;0.47;;;;;;;;;;4992575;28;20043;-86
2022/05/30 08:36:10;;;;;;;1.33;0.40;;;;;;;;;;4993582;28;20047;-83
2022/05/30 08:38:37;;;;;;;2.40;0.40;;;;;;;;;;4986883;28;20141;-78
2022/05/30 08:43:55;;;;;;;4.10;0.80;;;;;;;;;;5002920;28;20125;-78
2022/05/30 08:46:21;;;;;;;1.77;0.43;;;;;;;;;;5002516;28;20042;-77
2022/05/30 08:49:14;;;;;;;1.60;0.60;;;;;;;;;;5002654;28;20509;-77
2022/05/30 08:51:52;;;;;;;3.70;0.95;;;;;;;;;;4969043;28;20146;-78
2022/05/30 08:54:28;;;;;;;2.70;0.75;;;;;;;;;;4969762;28;20039;-77
2022/05/30 08:56:55;;;;;;;1.60;0.68;;;;;;;;;;5002550;28;20046;-78
2022/05/30 08:59:21;;;;;;;3.42;0.65;;;;;;;;;;4986010;28;20129;-78
2022/05/30 09:01:50;;;;;;;2.60;0.60;;;;;;;;;;4969777;28;20035;-77
2022/05/30 09:04:18;;;;;;;2.78;0.60;;;;;;;;;;5002351;28;20038;-78
2022/05/30 09:06:50;;;;;;;2.85;0.52;;;;;;;;;;5001611;28;20046;-78
2022/05/30 09:09:25;;;;;;;2.33;0.57;;;;;;;;;;5001999;28;20042;-78
2022/05/30 09:12:11;;;;;;;2.60;0.60;;;;;;;;;;4971981;28;20566;-91
2022/05/30 09:14:38;;;;;;;2.13;0.68;;;;;;;;;;4973395;28;20077;-90
2022/05/30 09:17:06;;;;;;;1.15;0.50;;;;;;;;;;5019990;28;20105;-91
2022/05/30 09:19:32;;;;;;;1.58;0.57;;;;;;;;;;4976971;28;20118;-88
2022/05/30 09:22:01;;;;;;;3.05;0.77;;;;;;;;;;5004801;28;20383;-87
2022/05/30 09:24:29;;;;;;;3.72;0.63;;;;;;;;;;4978351;28;20151;-84
2022/05/30 09:26:57;;;;;;;3.45;0.60;;;;;;;;;;4993656;28;20042;-90
2022/05/30 09:29:27;;;;;;;2.45;0.60;;;;;;;;;;4976660;28;20042;-89
2022/05/30 09:31:56;;;;;;;3.30;0.70;;;;;;;;;;4990070;28;20039;-87
2022/05/30 09:34:39;;;;;;;3.15;0.63;;;;;;;;;;4978374;28;20039;-84
2022/05/30 09:37:06;;;;;;;1.80;0.50;;;;;;;;;;4987843;28;20094;-89
2022/05/30 09:39:46;;;;;;;2.40;0.60;;;;;;;;;;4981621;28;20047;-90
2022/05/30 09:42:23;;;;;;;2.03;0.60;;;;;;;;;;4987531;28;20035;-91
2022/05/30 09:44:50;;;;;;;3.47;0.70;;;;;;;;;;5006110;28;20046;-88
2022/05/30 09:47:18;;;;;;;2.58;0.70;;;;;;;;;;4983197;28;20051;-90
2022/05/30 09:49:51;;;;;;;2.53;0.70;;;;;;;;;;4999624;28;20106;-89
2022/05/30 09:52:30;;;;;;;2.65;0.68;;;;;;;;;;4972229;28;20047;-91
2022/05/30 09:54:56;;;;;;;1.02;0.50;;;;;;;;;;4961358;28;20392;-88
2022/05/30 09:57:23;;;;;;;1.67;0.50;;;;;;;;;;5025020;28;20066;-88
2022/05/30 09:59:52;;;;;;;1.70;0.43;;;;;;;;;;5008051;28;20100;-78
2022/05/30 10:02:18;;;;;;;1.23;0.40;;;;;;;;;;4986898;28;20043;-78
2022/05/30 10:04:44;;;;;;;1.75;0.63;;;;;;;;;;5001059;28;20121;-78
2022/05/30 10:07:13;;;;;;;1.20;0.40;;;;;;;;;;5001250;28;20047;-78
2022/05/30 10:09:53;;;;;;;0.93;0.30;;;;;;;;;;5000929;28;20046;-78
2022/05/30 10:12:46;;;;;;;1.08;0.35;;;;;;;;;;5001385;28;20047;-78
2022/05/30 10:15:26;;;;;;;1.42;0.30;;;;;;;;;;4960673;28;20098;-78
2022/05/30 10:17:53;;;;;;;0.95;0.32;;;;;;;;;;5002004;28;20085;-78
2022/05/30 10:20:36;;;;;;;1.27;0.30;;;;;;;;;;5005607;28;20051;-75
2022/05/30 10:29:18;;;;;;;0.75;0.20;;;;;;;;;;4931710;29;20050;-75
2022/05/30 10:31:53;;;;;;;1.05;0.30;;;;;;;;;;5003666;28;20372;-76
2022/05/30 10:34:31;;;;;;;3.33;0.40;;;;;;;;;;5005634;28;20518;-76
2022/05/30 10:36:57;;;;;;;0.63;0.20;;;;;;;;;;4972747;28;20046;-83
2022/05/30 10:39:29;;;;;;;1.73;0.30;;;;;;;;;;5019658;28;20046;-88
2022/05/30 10:42:06;;;;;;;3.72;0.50;;;;;;;;;;4991115;28;20077;-88
2022/05/30 10:44:35;;;;;;;1.77;0.45;;;;;;;;;;5020948;28;20085;-86
2022/05/30 10:47:10;;;;;;;0.85;0.40;;;;;;;;;;4976528;28;20126;-88
2022/05/30 10:49:40;;;;;;;2.20;0.50;;;;;;;;;;5019403;28;20056;-87
2022/05/30 10:52:10;;;;;;;1.73;0.52;;;;;;;;;;4981187;28;20046;-88
2022/05/30 10:54:45;;;;;;;1.73;0.82;;;;;;;;;;4995075;28;20046;-88
2022/05/30 10:57:32;;;;;;;3.80;0.80;;;;;;;;;;4990667;28;20041;-88
2022/05/30 11:00:10;;;;;;;2.95;0.60;;;;;;;;;;5008593;28;20064;-89
2022/05/30 11:02:36;;;;;;;2.40;0.60;;;;;;;;;;5002418;28;20585;-89
2022/05/30 11:05:11;;;;;;;2.40;0.47;;;;;;;;;;4982989;28;20038;-88
2022/05/30 11:07:49;;;;;;;1.73;0.63;;;;;;;;;;5012880;28;20069;-88
2022/05/30 11:10:33;;;;;;;2.95;0.60;;;;;;;;;;4981603;28;20039;-91
2022/05/30 11:13:03;;;;;;;0.93;0.30;;;;;;;;;;4982751;28;20046;-82
2022/05/30 11:15:32;;;;;;;1.45;0.40;;;;;;;;;;4993510;28;20058;-87
2022/05/30 11:18:07;;;;;;;1.52;0.47;;;;;;;;;;4975139;28;20053;-85
2022/05/30 11:20:54;;;;;;;0.60;0.40;;;;;;;;;;4991471;28;20097;-89
2022/05/30 11:23:20;;;;;;;1.73;0.50;;;;;;;;;;4975516;28;20043;-90
2022/05/30 11:25:56;;;;;;;0.95;0.40;;;;;;;;;;5010440;28;20096;-91
2022/05/30 11:28:54;;;;;;;1.50;0.50;;;;;;;;;;4978124;28;20045;-90
2022/05/30 11:31:28;;;;;;;2.05;0.40;;;;;;;;;;4964806;28;20486;-87
2022/05/30 11:33:57;;;;;;;0.95;0.40;;;;;;;;;;4976057;28;20441;-85
2022/05/30 11:36:38;;;;;;;2.38;0.68;;;;;;;;;;5008393;28;20085;-87
2022/05/30 11:39:17;;;;;;;1.55;0.40;;;;;;;;;;5008314;28;20043;-84
2022/05/30 11:41:46;;;;;;;0.90;0.40;;;;;;;;;;4975751;28;20070;-83
2022/05/30 11:44:22;;;;;;;1.35;0.40;;;;;;;;;;5009500;28;20430;-84
2022/05/30 11:46:58;;;;;;;1.70;0.47;;;;;;;;;;5008022;28;20046;-83
2022/05/30 11:49:34;;;;;;;1.60;0.50;;;;;;;;;;5008047;28;20065;-84
2022/05/30 11:52:07;;;;;;;2.03;0.60;;;;;;;;;;4975440;28;20121;-84
2022/05/30 11:54:37;;;;;;;1.88;0.50;;;;;;;;;;5008080;28;20411;-85
2022/05/30 11:57:18;;;;;;;2.25;0.60;;;;;;;;;;5007883;28;20039;-84
2022/05/30 11:59:51;;;;;;;1.65;0.60;;;;;;;;;;5008087;28;20035;-85
2022/05/30 12:02:20;;;;;;;1.85;0.60;;;;;;;;;;5008270;28;20368;-85
2022/05/30 12:05:06;;;;;;;2.28;0.60;;;;;;;;;;5008733;28;20394;-87
2022/05/30 12:07:35;;;;;;;1.58;0.55;;;;;;;;;;4957261;28;20097;-86
2022/05/30 12:10:09;;;;;;;2.47;0.60;;;;;;;;;;5010950;28;20106;-86
2022/05/30 12:12:52;;;;;;;2.85;0.80;;;;;;;;;;5010917;28;20215;-85
2022/05/30 12:15:39;;;;;;;1.92;0.70;;;;;;;;;;5008180;28;20054;-77
2022/05/30 12:24:02;;;;;;;2.00;0.65;;;;;;;;;;5003569;28;20410;-78
2022/05/30 12:26:49;;;;;;;2.63;0.60;;;;;;;;;;4987387;28;20043;-78
2022/05/30 12:29:34;;;;;;;2.40;0.50;;;;;;;;;;5003307;28;20108;-78
2022/05/30 12:32:19;;;;;;;2.28;0.70;;;;;;;;;;5003420;28;20055;-78
2022/05/30 12:35:00;;;;;;;3.97;0.77;;;;;;;;;;5003149;28;20126;-78
2022/05/30 12:37:41;;;;;;;2.20;0.63;;;;;;;;;;5002883;28;20039;-78
2022/05/30 12:40:28;;;;;;;2.67;0.70;;;;;;;;;;5002961;28;20038;-79
2022/05/30 12:42:54;;;;;;;;;;;;;;;;;;4954525;28;20085;-79
2022/05/30 12:45:34;;;;;;;1.27;0.65;;;;;;;;;;4970377;28;19922;-78
2022/05/30 12:48:02;;;;;;;2.50;0.80;;;;;;;;;;5002800;28;20074;-79
2022/05/30 12:50:32;;;;;;;1.17;0.60;;;;;;;;;;5002795;28;20525;-79
2022/05/30 12:53:00;;;;;;;3.97;0.85;;;;;;;;;;5002973;28;20446;-79
2022/05/30 12:55:34;;;;;;;2.03;0.80;;;;;;;;;;4970276;28;20039;-77
2022/05/30 12:58:01;;;;;;;2.92;1.00;;;;;;;;;;4994173;28;20394;-78
2022/05/30 13:00:42;;;;;;;2.10;0.80;;;;;;;;;;4969707;28;20070;-79
2022/05/30 13:03:28;;;;;;;2.30;0.65;;;;;;;;;;5002762;28;20047;-79
2022/05/30 13:06:23;;;;;;;2.75;0.80;;;;;;;;;;5002452;28;20074;-77
2022/05/30 13:08:58;;;;;;;2.38;1.15;;;;;;;;;;4951648;28;20079;-78
2022/05/30 13:11:24;;;;;;;2.65;1.10;;;;;;;;;;5002441;28;20503;-78
2022/05/30 13:13:54;;;;;;;2.67;1.00;;;;;;;;;;5001744;28;20105;-78
2022/05/30 13:16:46;;;;;;;2.55;0.98;;;;;;;;;;5002145;28;20051;-78
2022/05/30 13:19:15;;;;;;;2.58;1.00;;;;;;;;;;4968223;28;20042;-78
2022/05/30 13:21:44;;;;;;;1.80;1.02;;;;;;;;;;5002180;28;20039;-78
2022/05/30 13:24:29;;;;;;;3.20;1.05;;;;;;;;;;5002419;28;20054;-79
2022/05/30 13:26:56;;;;;;;3.60;1.20;;;;;;;;;;4985973;28;20047;-78
2022/05/30 13:29:33;;;;;;;2.70;1.00;;;;;;;;;;5001854;28;20097;-78
2022/05/30 13:32:00;;;;;;;2.42;0.80;;;;;;;;;;4957128;28;20054;-78
2022/05/30 13:34:28;;;;;;;1.95;0.90;;;;;;;;;;4969477;28;20050;-76
2022/05/30 13:36:55;;;;;;;2.53;1.08;;;;;;;;;;4969123;28;20076;-86
2022/05/30 13:39:21;;;;;;;5.18;1.10;;;;;;;;;;5006071;28;20038;-87
2022/05/30 13:41:47;;;;;;;2.90;1.00;;;;;;;;;;4977147;28;20037;-89
2022/05/30 13:44:16;;;;;;;5.43;1.02;;;;;;;;;;4992430;28;20084;-90
2022/05/30 13:46:43;;;;;;;5.72;1.10;;;;;;;;;;4976343;28;20085;-88
2022/05/30 13:49:10;;;;;;;2.78;1.08;;;;;;;;;;4957125;28;20039;-86
2022/05/30 13:51:41;;;;;;;4.70;1.45;;;;;;;;;;4956971;28;20051;-87
2022/05/30 13:54:08;;;;;;;3.58;1.45;;;;;;;;;;4956734;28;20047;-87
2022/05/30 13:56:36;;;;;;;4.68;1.02;;;;;;;;;;4957108;28;20369;-87
2022/05/30 13:59:05;;;;;;;2.70;1.15;;;;;;;;;;4957175;28;20042;-89
2022/05/30 14:01:36;;;;;;;4.30;1.17;;;;;;;;;;4989630;28;20043;-90
2022/05/30 14:04:22;;;;;;;4.10;0.85;;;;;;;;;;4957398;28;20565;-88
2022/05/30 14:06:48;;;;;;;2.22;1.00;;;;;;;;;;4973192;28;20065;-88
2022/05/30 14:09:16;;;;;;;2.58;0.75;;;;;;;;;;5010656;28;20042;-88
2022/05/30 14:11:53;;;;;;;2.78;1.00;;;;;;;;;;4991657;28;20081;-87
2022/05/30 14:14:39;;;;;;;2.80;0.90;;;;;;;;;;4987184;28;20051;-84
2022/05/30 14:17:05;;;;;;;;;;;;;;;;;;5019078;28;20050;-87
2022/05/30 14:19:35;;;;;;;3.05;0.80;;;;;;;;;;4997633;28;19918;-86
2022/05/30 14:22:14;;;;;;;2.35;0.70;;;;;;;;;;4955378;28;20039;-86
2022/05/30 14:24:45;;;;;;;3.35;0.75;;;;;;;;;;4970242;28;20126;-86
2022/05/30 14:27:22;;;;;;;2.13;0.80;;;;;;;;;;4978642;28;20178;-86
2022/05/30 14:29:49;;;;;;;1.95;0.60;;;;;;;;;;5005787;28;20054;-86
2022/05/30 14:32:21;;;;;;;1.98;0.60;;;;;;;;;;5005231;28;20046;-86
2022/05/30 14:35:02;;;;;;;5.18;0.80;;;;;;;;;;5004753;28;20047;-88
2022/05/30 14:37:30;;;;;;;2.92;0.70;;;;;;;;;;5005836;28;20043;-87
2022/05/30 14:40:00;;;;;;;5.32;0.70;;;;;;;;;;4990962;28;20048;-87
2022/05/30 14:42:31;;;;;;;3.92;0.70;;;;;;;;;;4998361;28;20046;-87
2022/05/30 14:45:03;;;;;;;4.88;0.90;;;;;;;;;;5010036;28;20057;-88
2022/05/30 14:47:35;;;;;;;3.58;0.95;;;;;;;;;;4992063;28;20390;-88
2022/05/30 14:50:21;;;;;;;6.18;1.15;;;;;;;;;;4991238;28;20053;-83
2022/05/30 14:52:52;;;;;;;3.95;1.17;;;;;;;;;;5008443;28;20109;-87
2022/05/30 14:55:24;;;;;;;4.13;1.20;;;;;;;;;;4992107;28;20074;-86
2022/05/30 14:57:51;;;;;;;6.35;1.73;;;;;;;;;;4992296;28;20390;-87
2022/05/30 15:00:40;;;;;;;3.53;1.27;;;;;;;;;;4992138;28;20049;-85
2022/05/30 15:05:52;;;;;;;2.40;1.00;;;;;;;;;;4988258;28;20640;-85
2022/05/30 15:08:18;;;;;;;3.97;1.58;;;;;;;;;;4997095;28;20527;-84
2022/05/30 15:10:45;;;;;;;2.75;1.00;;;;;;;;;;4971579;28;20043;-85
2022/05/30 15:13:11;;;;;;;6.15;1.30;;;;;;;;;;4972424;28;20126;-86
2022/05/30 15:15:37;;;;;;;4.00;0.98;;;;;;;;;;5004155;28;20503;-88
2022/05/30 15:18:04;;;;;;;2.65;0.90;;;;;;;;;;4994386;28;20054;-88
2022/05/30 15:20:30;;;;;;;3.70;1.23;;;;;;;;;;4995031;28;20046;-83
2022/05/30 15:22:58;;;;;;;5.70;1.02;;;;;;;;;;4989388;28;20046;-81
2022/05/30 15:25:29;;;;;;;3.60;1.17;;;;;;;;;;4975036;28;20058;-86